首页
METAR-TAF:

METAR-TAF

机场 :

诺曼·曼利国际机场

京斯敦, 牙买加

纬度: 17-56N, 经度: 076-47W, 海拔: 3米

当前天气观测

该预报发布于55分钟前的01:00 UTC
风速5节,风向西北
温度 26°C
湿度 79%
气压 1017 hPa
能见度10公里或以上
少量云层高于2200英尺

METAR: MKJP 230100Z 32005KT 9999 FEW022 26/22 Q1017

时间: 20:55 (01:55 UTC)

预报

该预报发布于2小时和40分钟前的23:15 UTC
预报有效从23日的 00点(UTC)到 23日的 24点(UTC)
风速10节,风向
能见度10公里或以上
少量云层高于2200英尺
散云层高于3800英尺
成为
从 23日的 02点(UTC)到 23日的 04点(UTC)
风速5节,风向北转西北
几率 30% :
短暂存在
从 23日的 06点(UTC)到 23日的 10点(UTC)
能見度: 8000
散云层高于2000英尺
阵雨
成为
从 23日的 13点(UTC)到 23日的 15点(UTC)
风速20节,风向东南
散云层高于2200英尺

TAF: MKJP 222315Z 2300/2324 10010KT 9999 FEW022 SCT038 BECMG 2302/2304 34005KT PROB30 TEMPO 2306/2310 8000 SHRA SCT020 BECMG 2313/2315 14020KT SCT022

超过4000个机场的气象观测和天气预报(METAR&TAF报告)。

可查询的气象台以黄色和红色小点在地图上表示。

将鼠标移到小点上方,可查看气象台名称。

然后点击查看天气观测和预报。

如需切换地图:点击带黑十字的绿色按钮放大地图;点击带横线的绿色按钮缩小地图;或者点击绿色箭头查看邻近地区的地图。


METAR-TAF: